createdAt,value
2018-09-24T00:01:38.251Z,32.49
2018-09-24T00:04:14.671Z,31.78
2018-09-24T00:09:13.767Z,31.59
2018-09-24T00:11:49.807Z,31.26
2018-09-24T00:14:26.105Z,32.30
2018-09-24T00:17:02.269Z,31.14
2018-09-24T00:19:38.300Z,31.95
2018-09-24T00:22:14.910Z,31.71
2018-09-24T00:24:51.466Z,31.26
2018-09-24T00:27:27.912Z,31.57
2018-09-24T00:30:04.163Z,31.99
2018-09-24T00:32:40.357Z,31.09
2018-09-24T00:35:16.923Z,30.77
2018-09-24T00:37:52.994Z,31.45
2018-09-24T00:40:29.371Z,31.65
2018-09-24T00:43:06.093Z,31.43
2018-09-24T00:45:44.097Z,31.85
2018-09-24T00:48:21.111Z,31.12
2018-09-24T00:50:57.512Z,30.92
2018-09-24T00:53:33.760Z,31.28
2018-09-24T00:56:10.100Z,32.15
2018-09-24T00:58:46.227Z,31.99
2018-09-24T01:01:22.335Z,30.94
2018-09-24T01:03:59.149Z,31.75
2018-09-24T01:06:35.424Z,32.50
2018-09-24T01:09:14.568Z,31.93
2018-09-24T01:11:51.606Z,31.29
2018-09-24T01:14:28.187Z,31.02
2018-09-24T01:17:04.603Z,31.44
2018-09-24T01:19:41.009Z,31.27
2018-09-24T01:22:17.365Z,31.54
2018-09-24T01:24:54.281Z,31.65
2018-09-24T01:27:30.906Z,31.17
2018-09-24T01:30:06.852Z,31.80
2018-09-24T01:32:43.505Z,31.40
2018-09-24T01:35:20.271Z,30.84
2018-09-24T01:37:56.759Z,31.52
2018-09-24T01:40:33.133Z,31.16
2018-09-24T01:43:09.662Z,31.61
2018-09-24T01:45:46.331Z,31.24
2018-09-24T01:48:23.087Z,30.73
2018-09-24T01:50:59.382Z,31.90
2018-09-24T01:53:35.638Z,31.41
2018-09-24T01:56:12.599Z,31.23
2018-09-24T01:58:48.882Z,31.47
2018-09-24T02:01:25.115Z,31.41
2018-09-24T02:04:01.354Z,30.96
2018-09-24T02:06:37.523Z,31.44
2018-09-24T02:09:14.072Z,31.00
2018-09-24T02:11:50.595Z,31.23
2018-09-24T02:14:27.780Z,31.26
2018-09-24T02:17:04.415Z,30.98
2018-09-24T02:19:40.954Z,31.53
2018-09-24T02:22:19.668Z,32.09
2018-09-24T02:24:55.695Z,31.30
2018-09-24T02:27:33.187Z,31.59
2018-09-24T02:30:10.357Z,32.55
2018-09-24T02:32:47.139Z,32.19
2018-09-24T02:35:23.785Z,32.56
2018-09-24T02:38:00.263Z,31.20
2018-09-24T02:40:37.126Z,31.41
2018-09-24T02:43:14.198Z,31.90
2018-09-24T02:45:50.598Z,32.08
2018-09-24T02:48:27.683Z,31.38
2018-09-24T02:51:04.295Z,31.76
2018-09-24T02:53:44.754Z,31.97
2018-09-24T02:56:21.554Z,31.43
2018-09-24T02:58:58.117Z,31.90
2018-09-24T03:01:38.858Z,32.51
2018-09-24T03:04:15.179Z,32.23
2018-09-24T03:06:51.657Z,31.79
2018-09-24T03:09:28.169Z,32.68
2018-09-24T03:12:04.723Z,32.38
2018-09-24T03:14:41.002Z,32.69
2018-09-24T03:17:21.866Z,31.60
2018-09-24T03:19:58.391Z,31.78
2018-09-24T03:22:34.906Z,32.23
2018-09-24T03:25:11.974Z,31.86
2018-09-24T03:27:48.068Z,32.78
2018-09-24T03:30:24.265Z,32.15
2018-09-24T03:33:00.681Z,33.25
2018-09-24T03:35:37.379Z,32.73
2018-09-24T03:38:14.154Z,32.36
2018-09-24T03:40:50.328Z,32.16
2018-09-24T03:43:26.778Z,33.00
2018-09-24T03:46:03.107Z,32.26
2018-09-24T03:48:38.984Z,32.09
2018-09-24T03:51:15.569Z,33.37
2018-09-24T03:53:53.874Z,32.71
2018-09-24T03:56:30.274Z,33.30
2018-09-24T03:59:06.818Z,33.55
2018-09-24T04:01:42.799Z,33.13
2018-09-24T04:04:22.749Z,32.43
2018-09-24T04:07:03.163Z,33.37
2018-09-24T04:09:43.259Z,32.90
2018-09-24T04:12:23.638Z,33.19
2018-09-24T04:15:04.028Z,33.38
2018-09-24T04:17:44.370Z,32.61
2018-09-24T04:20:24.745Z,33.22
2018-09-24T04:23:05.330Z,33.54
2018-09-24T04:25:45.669Z,33.28
2018-09-24T04:28:25.986Z,32.79
2018-09-24T04:31:05.429Z,33.43
2018-09-24T04:33:44.903Z,32.82
2018-09-24T04:36:24.496Z,33.38
2018-09-24T04:39:03.973Z,33.43
2018-09-24T04:41:43.556Z,33.25
2018-09-24T04:44:23.238Z,33.59
2018-09-24T04:47:02.760Z,32.89
2018-09-24T04:49:42.760Z,33.51
2018-09-24T04:52:23.177Z,34.05
2018-09-24T04:55:03.353Z,33.81
2018-09-24T04:57:43.169Z,33.67
2018-09-24T05:00:24.288Z,33.94
2018-09-24T05:03:04.649Z,34.06
2018-09-24T05:07:11.385Z,34.49
2018-09-24T05:09:51.185Z,33.90
2018-09-24T05:12:31.345Z,34.11
2018-09-24T05:15:11.673Z,34.07
2018-09-24T05:17:51.603Z,33.86
2018-09-24T05:20:31.181Z,34.50
2018-09-24T05:23:11.353Z,34.21
2018-09-24T05:25:51.783Z,34.73
2018-09-24T05:28:31.641Z,34.29
2018-09-24T05:31:11.821Z,34.09
2018-09-24T05:33:52.241Z,33.50
2018-09-24T05:36:32.146Z,34.17
2018-09-24T05:39:14.032Z,34.22
2018-09-24T05:41:54.111Z,34.37
2018-09-24T05:44:34.068Z,34.20
2018-09-24T05:47:14.165Z,34.31
2018-09-24T05:51:30.809Z,34.41
2018-09-24T05:57:22.378Z,34.45
2018-09-24T06:00:02.166Z,34.65
2018-09-24T06:02:41.933Z,34.87
2018-09-24T06:05:22.374Z,35.16
2018-09-24T06:09:30.403Z,34.72
2018-09-24T06:12:10.807Z,34.83
2018-09-24T06:14:48.712Z,34.81
2018-09-24T06:17:29.793Z,34.10
2018-09-24T06:20:10.227Z,34.93
2018-09-24T06:22:50.044Z,34.65
2018-09-24T06:25:29.923Z,34.00
2018-09-24T06:28:10.224Z,35.00
2018-09-24T06:30:50.790Z,34.41
2018-09-24T06:33:31.202Z,34.30
2018-09-24T06:36:11.220Z,34.72
2018-09-24T06:38:51.587Z,34.02
2018-09-24T06:41:31.448Z,35.14
2018-09-24T06:44:11.442Z,34.54
2018-09-24T06:46:51.380Z,34.39
2018-09-24T06:49:31.440Z,34.87
2018-09-24T06:52:11.229Z,34.25
2018-09-24T06:54:51.278Z,35.01
2018-09-24T06:57:30.996Z,35.26
2018-09-24T07:02:26.825Z,34.27
2018-09-24T07:05:07.055Z,34.62
2018-09-24T07:07:47.054Z,34.60
2018-09-24T07:10:27.029Z,35.48
2018-09-24T07:13:06.810Z,35.32
2018-09-24T07:15:47.069Z,34.74
2018-09-24T07:18:27.041Z,34.81
2018-09-24T07:21:07.030Z,34.63
2018-09-24T07:23:47.100Z,34.67
2018-09-24T07:26:27.034Z,34.88
2018-09-24T07:29:07.245Z,35.14
2018-09-24T07:31:48.050Z,35.03
2018-09-24T07:34:28.069Z,34.73
2018-09-24T07:37:08.241Z,34.43
2018-09-24T07:39:48.078Z,34.83
2018-09-24T07:42:28.409Z,34.72
2018-09-24T07:45:08.400Z,33.78
2018-09-24T07:47:48.825Z,34.45
2018-09-24T07:50:28.813Z,34.56
2018-09-24T07:53:09.248Z,33.94
2018-09-24T07:55:49.263Z,34.71
2018-09-24T07:58:29.307Z,34.47
2018-09-24T08:01:09.302Z,34.46
2018-09-24T08:03:49.406Z,34.48
2018-09-24T08:06:29.860Z,34.85
2018-09-24T08:09:10.114Z,34.89
2018-09-24T08:11:50.206Z,34.72
2018-09-24T08:14:30.364Z,33.70
2018-09-24T08:17:10.078Z,34.78
2018-09-24T08:19:50.070Z,34.23
2018-09-24T08:22:30.394Z,33.51
2018-09-24T08:25:10.437Z,33.59
2018-09-24T08:27:50.729Z,34.38
2018-09-24T08:30:31.013Z,34.33
2018-09-24T08:33:11.253Z,34.41
2018-09-24T08:35:51.084Z,34.78
2018-09-24T08:38:31.004Z,33.79
2018-09-24T08:41:11.061Z,34.05
2018-09-24T08:43:51.086Z,34.26
2018-09-24T08:46:31.424Z,34.06
2018-09-24T08:49:11.482Z,34.21
2018-09-24T08:51:51.761Z,33.95
2018-09-24T08:54:31.709Z,33.44
2018-09-24T08:57:12.317Z,34.23
2018-09-24T08:59:52.278Z,33.78
2018-09-24T09:02:32.672Z,34.09
2018-09-24T09:05:12.842Z,33.88
2018-09-24T09:07:52.757Z,33.27
2018-09-24T09:10:32.881Z,33.94
2018-09-24T09:13:12.921Z,34.60
2018-09-24T09:15:52.780Z,33.87
2018-09-24T09:18:33.069Z,34.13
2018-09-24T09:21:13.061Z,33.84
2018-09-24T09:23:53.130Z,34.36
2018-09-24T09:26:33.227Z,33.55
2018-09-24T09:29:13.269Z,34.14
2018-09-24T09:31:53.273Z,33.71
2018-09-24T09:34:33.453Z,33.49
2018-09-24T09:37:13.475Z,33.08
2018-09-24T09:39:53.973Z,33.49
2018-09-24T09:42:34.119Z,33.14
2018-09-24T09:45:13.889Z,34.26
2018-09-24T09:47:54.284Z,33.43
2018-09-24T09:50:34.236Z,33.09
2018-09-24T09:53:14.240Z,33.53
2018-09-24T09:55:54.292Z,32.96
2018-09-24T09:58:34.096Z,33.92
2018-09-24T10:01:14.051Z,33.49
2018-09-24T10:03:54.424Z,34.08
2018-09-24T10:06:34.288Z,33.13
2018-09-24T10:09:16.882Z,33.51
2018-09-24T10:11:57.248Z,33.45
2018-09-24T10:14:37.625Z,32.82
2018-09-24T10:17:17.930Z,33.15
2018-09-24T10:19:58.250Z,33.84
2018-09-24T10:22:38.327Z,33.03
2018-09-24T10:25:18.405Z,33.31
2018-09-24T10:27:58.125Z,32.43
2018-09-24T10:30:38.253Z,33.00
2018-09-24T10:33:18.193Z,32.79
2018-09-24T10:35:58.894Z,32.79
2018-09-24T10:38:39.309Z,33.49
2018-09-24T10:41:19.291Z,33.04
2018-09-24T10:43:59.377Z,33.39
2018-09-24T10:46:39.316Z,32.64
2018-09-24T10:49:19.140Z,32.28
2018-09-24T10:51:58.986Z,33.28
2018-09-24T10:54:38.942Z,33.00
2018-09-24T10:57:19.072Z,33.16
2018-09-24T10:59:59.465Z,32.01
2018-09-24T11:02:39.750Z,32.83
2018-09-24T11:05:19.301Z,32.39
2018-09-24T11:07:59.226Z,32.52
2018-09-24T11:10:39.041Z,32.39
2018-09-24T11:13:18.807Z,32.53
2018-09-24T11:15:59.143Z,32.65
2018-09-24T11:18:39.398Z,32.91
2018-09-24T11:21:19.872Z,32.26
2018-09-24T11:23:59.833Z,32.68
2018-09-24T11:26:40.373Z,31.90
2018-09-24T11:29:20.229Z,32.25
2018-09-24T11:32:00.230Z,31.60
2018-09-24T11:34:40.166Z,32.31
2018-09-24T11:37:19.947Z,32.49
2018-09-24T11:40:00.223Z,31.81
2018-09-24T11:42:40.271Z,32.50
2018-09-24T11:45:20.173Z,32.85
2018-09-24T11:48:00.070Z,32.30
2018-09-24T11:50:40.222Z,32.10
2018-09-24T11:53:19.965Z,31.36
2018-09-24T11:56:00.031Z,31.75
2018-09-24T11:58:40.176Z,32.66
2018-09-24T12:01:19.953Z,32.28
2018-09-24T12:04:00.225Z,32.32
2018-09-24T12:06:40.225Z,32.18
2018-09-24T12:09:20.814Z,31.36
2018-09-24T12:12:00.944Z,31.35
2018-09-24T12:14:40.801Z,31.87
2018-09-24T12:17:20.843Z,32.46
2018-09-24T12:20:00.673Z,32.56
2018-09-24T12:22:41.058Z,31.87
2018-09-24T12:25:21.240Z,31.98
2018-09-24T12:28:01.642Z,31.93
2018-09-24T12:30:41.269Z,32.11
2018-09-24T12:33:21.264Z,32.40
2018-09-24T12:36:01.405Z,31.56
2018-09-24T12:38:41.233Z,32.06
2018-09-24T12:41:21.033Z,31.84
2018-09-24T12:44:00.988Z,32.24
2018-09-24T12:46:40.949Z,31.72
2018-09-24T12:49:20.814Z,31.25
2018-09-24T12:52:00.818Z,32.49
2018-09-24T12:54:40.986Z,32.55
2018-09-24T12:57:21.418Z,31.85
2018-09-24T13:00:01.533Z,31.94
2018-09-24T13:02:41.198Z,31.96
2018-09-24T13:05:21.831Z,31.79
2018-09-24T13:08:02.039Z,32.37
2018-09-24T13:10:42.249Z,32.28
2018-09-24T13:13:22.074Z,32.27
2018-09-24T13:16:02.510Z,32.51
2018-09-24T13:18:42.356Z,31.50
2018-09-24T13:21:22.410Z,31.29
2018-09-24T13:24:02.258Z,31.32
2018-09-24T13:26:42.253Z,31.76
2018-09-24T13:29:22.286Z,31.73
2018-09-24T13:32:02.046Z,31.71
2018-09-24T13:34:41.824Z,31.29
2018-09-24T13:37:22.081Z,31.06
2018-09-24T13:40:02.211Z,31.18
2018-09-24T13:42:42.397Z,31.73
2018-09-24T13:45:22.054Z,31.82
2018-09-24T13:48:02.104Z,31.86
2018-09-24T13:50:41.840Z,31.59
2018-09-24T13:53:22.015Z,32.15
2018-09-24T13:56:01.985Z,31.72
2018-09-24T13:58:42.261Z,31.91
2018-09-24T14:01:22.216Z,32.31
2018-09-24T14:04:02.262Z,32.33
2018-09-24T14:06:42.129Z,31.92
2018-09-24T14:09:23.085Z,32.46
2018-09-24T14:12:03.437Z,31.41
2018-09-24T14:14:43.255Z,32.04
2018-09-24T14:17:23.329Z,32.44
2018-09-24T14:20:03.734Z,32.16
2018-09-24T14:22:44.095Z,32.56
2018-09-24T14:25:24.043Z,31.62
2018-09-24T14:28:04.097Z,32.00
2018-09-24T14:30:43.939Z,31.79
2018-09-24T14:33:24.009Z,31.46
2018-09-24T14:36:03.940Z,32.29
2018-09-24T14:38:46.717Z,32.80
2018-09-24T14:41:26.409Z,32.65
2018-09-24T14:44:07.018Z,31.70
2018-09-24T14:46:47.125Z,32.43
2018-09-24T14:49:29.316Z,31.76
2018-09-24T14:52:09.449Z,31.54
2018-09-24T14:54:49.833Z,31.65
2018-09-24T14:57:29.854Z,31.62
2018-09-24T15:00:10.303Z,32.26
2018-09-24T15:02:50.120Z,31.57
2018-09-24T15:05:30.620Z,32.47
2018-09-24T15:08:11.121Z,32.28
2018-09-24T15:10:51.283Z,33.10
2018-09-24T15:13:31.638Z,32.46
2018-09-24T15:16:11.384Z,32.70
2018-09-24T15:18:51.449Z,33.12
2018-09-24T15:21:31.524Z,32.62
2018-09-24T15:24:11.645Z,32.50
2018-09-24T15:26:51.818Z,32.60
2018-09-24T15:29:31.925Z,32.74
2018-09-24T15:32:12.214Z,32.18
2018-09-24T15:34:52.265Z,33.21
2018-09-24T15:37:32.385Z,33.24
2018-09-24T15:40:12.219Z,33.49
2018-09-24T15:42:52.217Z,33.65
2018-09-24T15:45:32.041Z,33.31
2018-09-24T15:48:11.465Z,33.58
2018-09-24T15:50:50.726Z,33.29
2018-09-24T15:53:30.049Z,32.54
2018-09-24T15:56:09.498Z,33.23
2018-09-24T15:58:48.952Z,32.59
2018-09-24T16:01:29.048Z,33.00
2018-09-24T16:04:08.766Z,33.72
2018-09-24T16:06:48.222Z,32.71
2018-09-24T16:09:27.810Z,34.18
2018-09-24T16:12:07.252Z,33.85
2018-09-24T16:14:47.040Z,33.28
2018-09-24T16:17:26.771Z,34.04
2018-09-24T16:20:06.398Z,33.93
2018-09-24T16:22:46.617Z,34.14
2018-09-24T16:25:26.260Z,33.66
2018-09-24T16:28:06.066Z,33.79
2018-09-24T16:30:46.049Z,33.97
2018-09-24T16:33:26.405Z,33.44
2018-09-24T16:38:40.634Z,34.34
2018-09-24T16:41:21.241Z,34.30
2018-09-24T16:44:00.912Z,34.51
2018-09-24T16:46:41.072Z,34.14
2018-09-24T16:49:21.058Z,34.71
2018-09-24T16:52:01.236Z,35.00
2018-09-24T16:54:41.436Z,34.58
2018-09-24T16:57:21.153Z,34.86
2018-09-24T17:00:00.841Z,35.10
2018-09-24T17:02:40.677Z,34.52
2018-09-24T17:05:20.441Z,34.91
2018-09-24T17:07:59.820Z,35.27
2018-09-24T17:10:39.665Z,34.63
2018-09-24T17:13:19.233Z,35.11
2018-09-24T17:15:59.048Z,35.08
2018-09-24T17:18:38.869Z,34.34
2018-09-24T17:21:18.356Z,34.40
2018-09-24T17:23:57.826Z,35.83
2018-09-24T17:26:37.047Z,35.14
2018-09-24T17:29:17.001Z,34.52
2018-09-24T17:31:57.932Z,35.42
2018-09-24T17:34:37.530Z,34.55
2018-09-24T17:37:17.077Z,34.77
2018-09-24T17:39:56.904Z,34.87
2018-09-24T17:42:37.242Z,34.89
2018-09-24T17:45:16.846Z,35.65
2018-09-24T17:47:56.850Z,34.60
2018-09-24T17:50:36.988Z,35.02
2018-09-24T17:53:16.781Z,35.70
2018-09-24T17:55:57.057Z,34.64
2018-09-24T17:58:36.651Z,35.08
2018-09-24T18:01:16.449Z,35.58
2018-09-24T18:03:55.945Z,35.09
2018-09-24T18:06:35.435Z,35.97
2018-09-24T18:09:16.262Z,34.87
2018-09-24T18:11:55.553Z,34.94
2018-09-24T18:14:34.854Z,35.68
2018-09-24T18:17:14.521Z,35.65
2018-09-24T18:19:53.908Z,34.66
2018-09-24T18:22:34.099Z,35.84
2018-09-24T18:25:13.632Z,34.86
2018-09-24T18:27:52.914Z,34.80
2018-09-24T18:30:32.790Z,34.95
2018-09-24T18:33:12.706Z,34.42
2018-09-24T18:35:52.221Z,34.74
2018-09-24T18:38:31.932Z,35.10
2018-09-24T18:41:11.457Z,35.25
2018-09-24T18:43:51.222Z,34.68
2018-09-24T18:46:31.003Z,34.13
2018-09-24T18:49:10.901Z,34.03
2018-09-24T18:51:50.717Z,34.64
2018-09-24T18:54:30.274Z,35.15
2018-09-24T18:57:10.109Z,34.35
2018-09-24T18:59:50.331Z,33.86
2018-09-24T19:02:29.939Z,34.24
2018-09-24T19:05:09.757Z,34.58
2018-09-24T19:07:49.129Z,34.55
2018-09-24T19:10:28.836Z,33.97
2018-09-24T19:13:08.506Z,34.24
2018-09-24T19:15:48.346Z,33.82
2018-09-24T19:18:27.932Z,33.35
2018-09-24T19:21:07.517Z,33.57
2018-09-24T19:23:47.284Z,33.59
2018-09-24T19:26:27.023Z,34.22
2018-09-24T19:29:06.706Z,32.81
2018-09-24T19:31:46.480Z,32.80
2018-09-24T19:34:26.114Z,32.89
2018-09-24T19:37:05.832Z,33.09
2018-09-24T19:39:45.418Z,33.04
2018-09-24T19:42:25.048Z,33.14
2018-09-24T19:45:04.842Z,32.94
2018-09-24T19:47:42.732Z,32.75
2018-09-24T19:50:22.119Z,33.34
2018-09-24T19:53:01.941Z,33.19
2018-09-24T19:55:41.729Z,32.88
2018-09-24T19:58:21.442Z,32.44
2018-09-24T20:01:01.112Z,32.17
2018-09-24T20:03:40.889Z,32.77
2018-09-24T20:06:20.757Z,32.40
2018-09-24T20:09:00.297Z,31.96
2018-09-24T20:11:39.583Z,31.33
2018-09-24T20:14:19.280Z,32.02
2018-09-24T20:16:58.957Z,32.15
2018-09-24T20:19:38.823Z,31.28
2018-09-24T20:22:18.720Z,32.38
2018-09-24T20:24:58.460Z,31.16
2018-09-24T20:27:38.255Z,31.05
2018-09-24T20:30:18.024Z,31.47
2018-09-24T20:32:57.807Z,31.48
2018-09-24T20:35:37.518Z,30.87
2018-09-24T20:38:17.080Z,30.57
2018-09-24T20:40:56.893Z,31.63
2018-09-24T20:46:27.111Z,31.30
2018-09-24T20:49:06.473Z,31.43
2018-09-24T20:51:45.885Z,30.22
2018-09-24T20:54:25.317Z,30.48
2018-09-24T20:57:04.765Z,30.78
2018-09-24T20:59:44.321Z,30.51
2018-09-24T21:02:23.602Z,29.65
2018-09-24T21:05:03.176Z,29.56
2018-09-24T21:07:42.761Z,30.81
2018-09-24T21:10:22.483Z,29.69
2018-09-24T21:13:01.997Z,30.34
2018-09-24T21:15:41.991Z,29.58
2018-09-24T21:18:21.599Z,30.21
2018-09-24T21:21:01.306Z,30.20
2018-09-24T21:23:40.833Z,30.02
2018-09-24T21:28:38.993Z,31.01
2018-09-24T21:31:19.066Z,30.62
2018-09-24T21:33:58.531Z,30.14
2018-09-24T21:36:38.278Z,30.92
2018-09-24T21:39:17.956Z,29.75
2018-09-24T21:41:57.859Z,30.53
2018-09-24T21:44:37.578Z,30.18
2018-09-24T21:47:17.949Z,30.49
2018-09-24T21:49:57.733Z,30.71
2018-09-24T21:52:38.175Z,30.44
2018-09-24T21:55:17.813Z,30.43
2018-09-24T21:57:57.341Z,30.18
2018-09-24T22:00:36.889Z,30.32
2018-09-24T22:03:16.337Z,29.89
2018-09-24T22:05:55.999Z,29.94
2018-09-24T22:08:35.917Z,29.53
2018-09-24T22:11:15.616Z,29.91
2018-09-24T22:13:55.123Z,29.89
2018-09-24T22:16:35.352Z,30.63
2018-09-24T22:19:15.344Z,29.69
2018-09-24T22:21:55.024Z,29.37
2018-09-24T22:24:34.917Z,30.50
2018-09-24T22:27:14.529Z,30.07
2018-09-24T22:29:54.180Z,30.16
2018-09-24T22:32:33.934Z,30.19
2018-09-24T22:35:13.879Z,30.56
2018-09-24T22:37:53.417Z,30.61
2018-09-24T22:40:33.153Z,29.69
2018-09-24T22:43:12.747Z,30.71
2018-09-24T22:45:52.346Z,30.02
2018-09-24T22:48:32.919Z,30.21
2018-09-24T22:51:12.182Z,30.15
2018-09-24T22:53:51.517Z,30.29
2018-09-24T22:56:31.372Z,30.77
2018-09-24T22:59:11.065Z,30.01
2018-09-24T23:01:50.833Z,29.78
2018-09-24T23:04:30.559Z,29.84
2018-09-24T23:07:10.517Z,30.43
2018-09-24T23:12:08.073Z,31.10
2018-09-24T23:14:47.827Z,30.01
2018-09-24T23:17:27.522Z,30.49
2018-09-24T23:20:07.004Z,30.17
2018-09-24T23:22:46.769Z,30.03
2018-09-24T23:25:26.497Z,30.41
2018-09-24T23:28:06.137Z,30.65
2018-09-24T23:30:45.910Z,30.35
2018-09-24T23:33:25.211Z,30.45
2018-09-24T23:36:04.645Z,29.90
2018-09-24T23:38:44.203Z,30.84
2018-09-24T23:41:23.805Z,30.99
2018-09-24T23:44:03.544Z,31.06
2018-09-24T23:46:42.962Z,30.70
2018-09-24T23:49:22.901Z,29.93
2018-09-24T23:52:02.848Z,29.99
2018-09-24T23:54:42.501Z,29.87
2018-09-24T23:57:22.026Z,29.86
